Date,TemperatureHighF,TemperatureAvgF,TemperatureLowF,DewpointHighF,DewpointAvgF,DewpointLowF,HumidityHigh,HumidityAvg,HumidityLow,PressureMaxIn,PressureMinIn,WindSpeedMaxMPH,WindSpeedAvgMPH,GustSpeedMaxMPH,PrecipitationSumIn
2013-9-1,83.9,71.7,63.4,73.0,67.8,63.0,100,88,68,29.78,29.68,9,2,26,0.82
2013-9-2,76.5,67.5,59.1,66.0,62.0,56.0,96,83,60,29.95,29.77,10,2,15,0.00
2013-9-3,74.2,63.6,53.2,58.0,55.8,52.0,96,77,56,30.06,29.95,6,2,10,0.00
2013-9-4,80.7,68.7,56.7,64.0,59.7,55.0,95,75,53,30.09,30.01,9,2,13,0.00
2013-9-5,72.7,66.5,56.6,67.0,57.5,50.0,97,74,53,30.22,30.08,7,2,11,0.00
2013-9-6,84.1,71.1,56.1,69.0,61.0,52.0,88,72,51,30.19,29.98,3,1,11,0.00
2013-9-7,86.0,75.4,65.6,69.0,66.2,63.0,91,75,49,29.98,29.84,11,2,18,0.01
2013-9-8,73.5,70.7,68.1,68.0,67.4,66.0,95,89,81,29.98,29.91,8,3,10,0.00
2013-9-9,91.9,79.5,67.2,78.0,72.0,66.0,96,79,62,29.93,29.77,8,2,17,0.00
2013-9-10,93.1,84.0,73.6,73.0,68.3,66.0,79,60,42,29.94,29.82,10,4,21,0.00
2013-9-11,87.2,77.7,71.7,71.0,68.8,67.0,90,75,55,30.00,29.93,7,2,14,0.02
2013-9-12,77.1,69.1,59.4,68.0,61.8,56.0,97,79,51,30.05,29.91,15,3,18,0.00
2013-9-13,66.3,57.2,49.0,56.0,46.8,43.0,89,70,46,30.16,30.05,10,2,16,0.00
2013-9-14,71.0,58.1,46.0,52.0,47.0,44.0,97,70,39,30.17,30.01,7,1,11,0.01
2013-9-15,59.3,56.5,53.4,58.0,52.4,43.0,98,88,57,30.14,29.95,4,1,9,0.87
2013-9-16,64.8,55.1,46.7,57.0,50.0,45.0,97,84,60,30.35,30.15,8,2,13,0.01
2013-9-17,69.4,59.2,48.2,57.0,52.4,47.0,97,79,60,30.32,30.09,7,2,10,0.00
2013-9-18,78.6,67.0,59.3,69.0,61.2,53.0,96,82,67,30.09,29.88,6,2,15,0.29
2013-9-19,82.2,73.6,68.6,75.0,70.5,65.0,99,90,72,29.92,29.72,8,2,18,0.28
2013-9-20,73.1,66.5,56.9,67.0,61.8,53.0,97,85,69,29.79,29.71,12,4,19,0.05
2013-9-21,63.4,56.2,49.6,54.0,49.5,46.0,97,79,58,29.93,29.78,12,3,18,0.00
2013-9-22,67.4,54.4,45.9,52.0,48.1,45.0,96,81,52,30.05,29.93,6,2,8,0.00
2013-9-23,66.0,54.9,45.7,52.0,48.7,44.0,95,81,58,30.11,30.04,6,2,11,0.00
2013-9-26,74.0,66.7,58.0,57.0,54.6,49.0,95,68,41,30.06,30.02,6,2,9,0.01
2013-9-27,79.0,66.2,54.5,60.0,54.8,48.0,96,69,45,30.14,30.02,7,2,12,0.00
2013-9-28,81.9,69.1,55.2,66.0,57.6,50.0,95,68,48,30.05,29.84,10,2,18,0.10
2013-9-29,67.9,58.1,49.6,62.0,50.6,44.0,98,79,46,30.03,29.88,10,2,18,0.18
2013-9-30,72.8,60.2,46.8,56.0,50.3,46.0,98,73,44,29.99,29.84,7,1,9,0.00